createdAt,value
2023-12-28T00:03:16.502Z,87.31
2023-12-28T00:08:18.627Z,87.20
2023-12-28T00:13:20.769Z,86.96
2023-12-28T00:18:23.773Z,86.93
2023-12-28T00:23:26.288Z,86.89
2023-12-28T00:28:28.371Z,86.85
2023-12-28T00:33:30.517Z,87.53
2023-12-28T00:38:32.659Z,87.42
2023-12-28T00:43:35.047Z,87.46
2023-12-28T00:48:37.285Z,87.28
2023-12-28T00:53:39.617Z,87.42
2023-12-28T00:58:42.227Z,87.64
2023-12-28T01:03:44.588Z,87.50
2023-12-28T01:08:46.776Z,87.25
2023-12-28T01:13:48.910Z,88.08
2023-12-28T01:18:51.192Z,88.85
2023-12-28T01:23:53.460Z,89.37
2023-12-28T01:28:55.673Z,89.51
2023-12-28T01:33:57.948Z,89.84
2023-12-28T01:39:00.167Z,90.51
2023-12-28T01:44:02.323Z,90.50
2023-12-28T01:49:06.075Z,91.22
2023-12-28T01:54:08.416Z,91.29
2023-12-28T01:59:10.590Z,91.35
2023-12-28T02:04:13.869Z,91.87
2023-12-28T02:09:16.077Z,91.92
2023-12-28T02:14:18.700Z,91.72
2023-12-28T02:19:56.832Z,91.85
2023-12-28T02:25:09.714Z,92.27
2023-12-28T02:30:12.824Z,92.53
2023-12-28T02:35:23.089Z,92.42
2023-12-28T02:40:27.502Z,92.57
2023-12-28T02:45:29.791Z,92.70
2023-12-28T02:50:34.979Z,92.78
2023-12-28T02:55:37.078Z,92.94
2023-12-28T03:00:39.281Z,92.84
2023-12-28T03:05:42.426Z,93.06
2023-12-28T03:10:44.718Z,93.00
2023-12-28T03:15:46.871Z,93.37
2023-12-28T03:20:48.973Z,93.84
2023-12-28T03:25:51.171Z,93.78
2023-12-28T03:30:53.417Z,94.05
2023-12-28T03:35:55.630Z,94.11
2023-12-28T03:40:57.716Z,94.20
2023-12-28T03:45:59.826Z,94.41
2023-12-28T03:51:01.977Z,94.72
2023-12-28T03:56:04.289Z,94.87
2023-12-28T04:01:06.466Z,94.79
2023-12-28T04:06:08.588Z,94.88
2023-12-28T04:11:10.992Z,94.83
2023-12-28T04:16:14.382Z,94.99
2023-12-28T04:21:16.806Z,94.97
2023-12-28T04:26:20.849Z,94.95
2023-12-28T04:31:23.043Z,95.28
2023-12-28T04:36:25.780Z,95.48
2023-12-28T04:41:27.850Z,95.51
2023-12-28T04:46:30.034Z,95.54
2023-12-28T04:51:32.155Z,95.73
2023-12-28T04:56:34.284Z,95.75
2023-12-28T05:01:45.068Z,95.82
2023-12-28T05:06:47.326Z,95.90
2023-12-28T05:11:49.486Z,96.09
2023-12-28T05:16:51.623Z,96.06
2023-12-28T05:21:53.903Z,96.00
2023-12-28T05:26:56.081Z,95.97
2023-12-28T05:31:58.221Z,96.09
2023-12-28T05:37:00.402Z,96.40
2023-12-28T05:42:02.665Z,96.29
2023-12-28T05:47:05.028Z,95.97
2023-12-28T05:52:08.323Z,95.77
2023-12-28T05:57:10.787Z,95.85
2023-12-28T06:02:12.927Z,95.86
2023-12-28T06:07:15.052Z,95.98
2023-12-28T06:12:17.534Z,95.99
2023-12-28T06:17:19.960Z,95.93
2023-12-28T06:22:22.151Z,95.78
2023-12-28T06:27:27.322Z,95.75
2023-12-28T06:32:31.396Z,95.84
2023-12-28T06:37:33.773Z,95.55
2023-12-28T06:42:35.942Z,95.85
2023-12-28T06:47:38.523Z,96.58
2023-12-28T06:52:40.690Z,96.80
2023-12-28T06:57:42.865Z,97.63
2023-12-28T07:02:45.031Z,97.40
2023-12-28T07:07:47.314Z,97.23
2023-12-28T07:12:49.513Z,97.13
2023-12-28T07:17:52.037Z,96.95
2023-12-28T07:22:55.031Z,97.06
2023-12-28T07:27:57.743Z,96.60
2023-12-28T07:33:00.216Z,96.57
2023-12-28T07:38:02.845Z,96.51
2023-12-28T07:43:05.115Z,96.83
2023-12-28T07:48:07.811Z,96.70
2023-12-28T07:53:10.238Z,96.33
2023-12-28T07:58:12.349Z,95.66
2023-12-28T08:03:16.787Z,94.66
2023-12-28T08:08:19.026Z,94.01
2023-12-28T08:13:22.464Z,93.00
2023-12-28T08:18:25.047Z,91.74
2023-12-28T08:23:27.314Z,90.41
2023-12-28T08:28:29.831Z,89.26
2023-12-28T08:33:32.130Z,87.88
2023-12-28T08:38:34.490Z,87.00
2023-12-28T08:43:37.706Z,85.96
2023-12-28T08:48:40.147Z,84.16
2023-12-28T08:53:42.741Z,83.20
2023-12-28T08:58:45.693Z,82.03
2023-12-28T09:03:52.834Z,81.01
2023-12-28T09:08:55.336Z,79.27
2023-12-28T09:13:58.184Z,77.22
2023-12-28T09:19:00.568Z,76.26
2023-12-28T09:24:03.831Z,76.46
2023-12-28T09:29:05.926Z,75.64
2023-12-28T09:34:08.250Z,74.23
2023-12-28T09:39:10.826Z,73.56
2023-12-28T09:44:13.876Z,73.49
2023-12-28T09:49:17.435Z,72.72
2023-12-28T09:54:19.816Z,70.90
2023-12-28T09:59:22.201Z,69.21
2023-12-28T10:04:24.803Z,57.90
2023-12-28T10:09:28.107Z,47.87
2023-12-28T10:14:30.390Z,43.09
2023-12-28T10:19:33.250Z,36.23
2023-12-28T10:24:35.570Z,35.95
2023-12-28T10:29:37.836Z,36.43
2023-12-28T10:34:40.458Z,35.70
2023-12-28T10:39:52.880Z,30.72
2023-12-28T10:45:02.622Z,27.75
2023-12-28T10:50:07.186Z,26.09
2023-12-28T10:55:21.619Z,23.48
2023-12-28T11:00:31.954Z,21.79
2023-12-28T11:05:36.371Z,20.98
2023-12-28T11:10:39.857Z,19.94
2023-12-28T11:15:42.505Z,21.14
2023-12-28T11:20:45.385Z,20.03
2023-12-28T11:25:47.598Z,19.88
2023-12-28T11:30:50.218Z,20.09
2023-12-28T11:35:53.588Z,18.91
2023-12-28T11:40:58.381Z,18.22
2023-12-28T11:46:01.595Z,19.05
2023-12-28T11:51:04.432Z,18.84
2023-12-28T11:56:10.417Z,18.61
2023-12-28T12:01:13.165Z,29.72
2023-12-28T12:06:15.373Z,21.12
2023-12-28T12:11:19.640Z,20.26
2023-12-28T12:16:21.863Z,19.78
2023-12-28T12:21:25.384Z,18.76
2023-12-28T12:26:28.001Z,19.38
2023-12-28T12:31:30.351Z,21.99
2023-12-28T12:36:32.781Z,22.80
2023-12-28T12:41:35.390Z,24.25
2023-12-28T12:46:37.518Z,28.41
2023-12-28T12:51:39.909Z,33.21
2023-12-28T12:56:46.708Z,34.91
2023-12-28T13:01:53.787Z,37.23
2023-12-28T13:06:56.012Z,37.16
2023-12-28T13:11:58.896Z,41.76
2023-12-28T13:17:01.024Z,44.59
2023-12-28T13:22:03.398Z,47.57
2023-12-28T13:27:05.731Z,49.46
2023-12-28T13:32:07.854Z,51.84
2023-12-28T13:37:10.074Z,54.71
2023-12-28T13:42:12.175Z,54.38
2023-12-28T13:47:14.232Z,56.22
2023-12-28T13:52:16.314Z,56.76
2023-12-28T13:57:18.420Z,59.87
2023-12-28T14:02:22.807Z,59.22
2023-12-28T14:07:25.831Z,60.14
2023-12-28T14:12:28.067Z,61.22
2023-12-28T14:17:31.477Z,63.16
2023-12-28T14:22:34.099Z,63.79
2023-12-28T14:27:36.582Z,65.64
2023-12-28T14:32:39.197Z,65.04
2023-12-28T14:37:41.412Z,65.31
2023-12-28T14:42:43.529Z,66.78
2023-12-28T14:47:46.368Z,66.96
2023-12-28T14:52:48.842Z,67.34
2023-12-28T14:57:50.958Z,68.67
2023-12-28T15:02:53.055Z,69.51
2023-12-28T15:07:55.227Z,70.61
2023-12-28T15:12:57.709Z,70.98
2023-12-28T15:18:00.745Z,71.74
2023-12-28T15:23:03.675Z,72.64
2023-12-28T15:28:07.221Z,72.94
2023-12-28T15:33:09.533Z,74.10
2023-12-28T15:38:11.749Z,74.90
2023-12-28T15:43:13.863Z,75.53
2023-12-28T15:48:16.167Z,76.36
2023-12-28T15:53:18.731Z,77.61
2023-12-28T15:58:23.544Z,77.98
2023-12-28T16:03:25.695Z,78.29
2023-12-28T16:08:27.879Z,79.36
2023-12-28T16:13:30.061Z,80.54
2023-12-28T16:18:32.695Z,81.29
2023-12-28T16:23:35.526Z,82.57
2023-12-28T16:28:37.955Z,83.05
2023-12-28T16:33:40.262Z,83.42
2023-12-28T16:38:42.734Z,84.20
2023-12-28T16:43:44.935Z,84.51
2023-12-28T16:48:47.214Z,84.91
2023-12-28T16:53:49.672Z,85.63
2023-12-28T16:58:51.796Z,86.48
2023-12-28T17:03:54.467Z,86.60
2023-12-28T17:08:56.745Z,87.05
2023-12-28T17:13:59.070Z,87.27
2023-12-28T17:19:01.701Z,87.93
2023-12-28T17:24:07.477Z,88.07
2023-12-28T17:29:11.353Z,88.43
2023-12-28T17:34:13.940Z,88.27
2023-12-28T17:39:16.613Z,88.77
2023-12-28T17:44:25.777Z,89.59
2023-12-28T17:49:29.987Z,89.43
2023-12-28T17:54:32.366Z,89.17
2023-12-28T17:59:34.504Z,89.49
2023-12-28T18:04:36.695Z,89.54
2023-12-28T18:09:41.836Z,90.03
2023-12-28T18:14:44.186Z,89.99
2023-12-28T18:19:47.252Z,89.77
2023-12-28T18:24:50.986Z,89.88
2023-12-28T18:29:54.454Z,89.90
2023-12-28T18:34:56.830Z,90.16
2023-12-28T18:39:59.020Z,90.18
2023-12-28T18:45:01.270Z,90.51
2023-12-28T18:50:03.818Z,90.62
2023-12-28T18:55:06.651Z,91.88
2023-12-28T19:00:09.380Z,91.32
2023-12-28T19:05:11.596Z,91.27
2023-12-28T19:10:13.812Z,91.51
2023-12-28T19:15:18.340Z,91.88
2023-12-28T19:20:20.690Z,91.79
2023-12-28T19:25:22.901Z,91.91
2023-12-28T19:30:25.249Z,92.04
2023-12-28T19:35:27.361Z,92.17
2023-12-28T19:40:29.495Z,92.37
2023-12-28T19:45:31.679Z,92.19
2023-12-28T19:50:33.890Z,92.39
2023-12-28T19:55:36.062Z,92.39
2023-12-28T20:00:39.708Z,91.92
2023-12-28T20:05:41.990Z,92.37
2023-12-28T20:10:44.248Z,93.31
2023-12-28T20:15:48.068Z,93.11
2023-12-28T20:20:52.334Z,93.41
2023-12-28T20:25:54.468Z,93.87
2023-12-28T20:30:56.699Z,93.79
2023-12-28T20:35:58.883Z,93.70
2023-12-28T20:41:01.335Z,93.47
2023-12-28T20:46:04.044Z,93.63
2023-12-28T20:51:07.448Z,94.21
2023-12-28T20:56:09.524Z,94.81
2023-12-28T21:01:11.706Z,95.18
2023-12-28T21:06:13.903Z,95.26
2023-12-28T21:11:16.423Z,94.89
2023-12-28T21:16:18.648Z,95.45
2023-12-28T21:21:20.870Z,96.00
2023-12-28T21:26:23.057Z,96.12
2023-12-28T21:31:25.486Z,96.04
2023-12-28T21:36:27.750Z,95.97
2023-12-28T21:41:31.592Z,95.87
2023-12-28T21:46:33.757Z,95.53
2023-12-28T21:51:37.456Z,96.07
2023-12-28T21:56:40.381Z,96.60
2023-12-28T22:01:42.682Z,96.31
2023-12-28T22:06:44.952Z,96.08
2023-12-28T22:11:47.247Z,95.91
2023-12-28T22:16:50.806Z,96.36
2023-12-28T22:21:53.002Z,96.28
2023-12-28T22:26:55.397Z,95.73
2023-12-28T22:31:57.690Z,96.24
2023-12-28T22:36:59.886Z,96.23
2023-12-28T22:42:02.035Z,96.05
2023-12-28T22:47:04.352Z,96.36
2023-12-28T22:52:09.026Z,96.66
2023-12-28T22:57:12.352Z,96.63
2023-12-28T23:02:14.587Z,96.23
2023-12-28T23:07:18.158Z,96.00
2023-12-28T23:12:20.498Z,95.68
2023-12-28T23:17:22.660Z,95.57
2023-12-28T23:22:25.112Z,95.72
2023-12-28T23:27:34.099Z,95.95
2023-12-28T23:32:36.786Z,96.25
2023-12-28T23:37:39.188Z,96.23
2023-12-28T23:42:42.133Z,96.27
2023-12-28T23:47:44.522Z,96.49
2023-12-28T23:52:46.738Z,95.96
2023-12-28T23:57:48.914Z,95.94
